Thursday, August 16, 2018, 5:55 AM GMT
Back to Local

CWGL, Lagoon City

Location: , , Canada Lat: 44.533
Local Time: 5:55 AM GMT ( 5:55 GMT) Lon: -79.217
Time Zone: GMT Elev: 725 ft

Show me the last for .
Show Coded

Time T Td Feel RH Dir Speed Gust Alt SLP Vis Weather Sky Remarks
2018-08-16 05:00 70 64 - 80 10° 6 - - 29.98 0 None
2018-08-16 04:00 73 65 77 75 340° 3 - - 29.97 0 None
2018-08-16 03:00 74 64 77 71 300° 6 - - 29.97 0 None
2018-08-16 02:00 75 64 78 69 300° 6 - - 29.97 0 None
2018-08-16 01:00 76 64 78 67 320° 6 - - 29.95 0 None
2018-08-16 00:00 77 66 80 68 320° 10 - - 29.93 0 None
2018-08-15 23:00 80 67 82 66 320° 10 - - 29.91 0 None
2018-08-15 22:00 81 67 84 62 300° 10 - - 29.90 0 None
2018-08-15 21:00 81 67 84 63 320° 7 - - 29.90 0 None
2018-08-15 20:00 81 67 84 61 320° 9 - - 29.91 0 None
2018-08-15 19:00 81 64 82 56 290° 13 - - 29.91 0 Peak wind: 19 mph (17 kts) from 290° at 10 min
2018-08-15 18:00 78 66 81 66 280° 14 - - 29.91 0 None
2018-08-15 17:00 79 67 82 66 310° 8 - - 29.91 0 None
2018-08-15 16:00 79 66 81 65 290° 9 - - 29.91 0 None
2018-08-15 15:00 77 64 79 63 280° 7 - - 29.92 0 None
2018-08-15 14:00 75 66 79 73 270° 7 - - 29.91 0 None
2018-08-15 13:00 74 66 77 77 270° 12 - - 29.90 0 None
2018-08-15 12:00 74 67 77 79 290° 10 - - 29.88 0 None
2018-08-15 11:00 73 66 77 78 290° 7 - - 29.88 0 None
2018-08-15 10:00 74 66 78 74 280° 12 - - 29.86 0 None
2018-08-15 09:00 75 64 78 67 270° 9 - - 29.85 0 None
2018-08-15 08:00 74 65 78 71 240° 10 - - 29.84 0 None
2018-08-15 07:00 75 65 78 70 240° 9 - - 29.84 0 None
2018-08-15 06:00 74 65 78 72 300° 6 - - 29.85 0 None

Support USWX by starting your Amazon purchase here.